Time;durP1;ratioP1;P1;durP2;ratioP2;P2;SDS_P1;SDS_P2;PMS_P1;PMS_P2;Temp;Humidity;BMP_temperature;BMP_pressure;BME280_temperature;BME280_humidity;BME280_pressure;Samples;Min_cycle;Max_cycle;Signal;HPM_P1;HPM_P2
2023/03/08 00:00:14;;;;;;;1.52;0.77;;;14.70;60.40;;;;;;10449579;28;20017;-59
2023/03/08 00:05:15;;;;;;;1.83;1.00;;;14.60;60.90;;;;;;10449264;28;20043;-59
2023/03/08 00:10:16;;;;;;;2.05;1.00;;;14.60;60.40;;;;;;10449926;28;20020;-60
2023/03/08 00:15:18;;;;;;;2.78;1.20;;;14.60;60.60;;;;;;10449064;28;20048;-60
2023/03/08 00:20:18;;;;;;;2.67;1.27;;;14.60;60.40;;;;;;10449117;28;20047;-59
2023/03/08 00:25:19;;;;;;;1.95;1.00;;;14.50;60.30;;;;;;10449238;28;20449;-60
2023/03/08 00:30:20;;;;;;;3.15;1.33;;;14.50;60.40;;;;;;10431721;28;20021;-60
2023/03/08 00:35:21;;;;;;;2.53;1.50;;;14.50;60.40;;;;;;10449806;28;20033;-60
2023/03/08 00:40:22;;;;;;;1.75;1.10;;;14.50;60.50;;;;;;10448617;28;20063;-60
2023/03/08 00:45:22;;;;;;;2.90;1.50;;;14.50;60.50;;;;;;10448262;28;20029;-59
2023/03/08 00:50:23;;;;;;;3.10;1.30;;;14.50;60.30;;;;;;10447719;28;20071;-59
2023/03/08 00:55:24;;;;;;;1.98;1.58;;;14.50;60.50;;;;;;10448645;28;20125;-59
2023/03/08 01:00:24;;;;;;;1.98;1.00;;;14.40;60.40;;;;;;10447783;28;20409;-59
2023/03/08 01:05:25;;;;;;;2.13;1.52;;;14.40;60.70;;;;;;10430413;28;20028;-59
2023/03/08 01:10:26;;;;;;;3.30;1.48;;;14.40;60.40;;;;;;10460410;28;20525;-61
2023/03/08 01:15:26;;;;;;;2.15;1.30;;;14.40;60.50;;;;;;10446339;28;20131;-60
2023/03/08 01:20:27;;;;;;;2.90;1.52;;;14.40;60.40;;;;;;10446653;28;20024;-58
2023/03/08 01:25:28;;;;;;;3.17;1.45;;;14.40;60.30;;;;;;10446517;28;20488;-60
2023/03/08 01:30:29;;;;;;;2.10;1.40;;;14.30;60.40;;;;;;10430484;28;20059;-60
2023/03/08 01:35:29;;;;;;;2.83;1.85;;;14.30;60.10;;;;;;10446323;28;20029;-60
2023/03/08 01:40:30;;;;;;;2.47;1.73;;;14.30;60.10;;;;;;10445637;28;20021;-59
2023/03/08 01:46:27;;;;;;;2.80;1.50;;;14.30;60.20;;;;;;10446963;28;20104;-59
2023/03/08 01:51:42;;;;;;;3.30;1.75;;;14.20;60.30;;;;;;10433334;28;20033;-57
2023/03/08 01:56:45;;;;;;;2.78;1.42;;;14.30;60.20;;;;;;10445307;28;20476;-59
2023/03/08 02:01:46;;;;;;;3.03;1.80;;;14.20;60.30;;;;;;10445488;28;20027;-60
2023/03/08 02:06:47;;;;;;;4.63;1.83;;;14.20;60.20;;;;;;10445084;28;20524;-60
2023/03/08 02:11:48;;;;;;;2.55;1.73;;;14.20;60.40;;;;;;10445222;28;20032;-59
2023/03/08 02:16:49;;;;;;;2.67;1.70;;;14.20;60.30;;;;;;10444744;28;20044;-59
2023/03/08 02:21:50;;;;;;;2.38;1.55;;;14.20;60.40;;;;;;10444427;28;20045;-60
2023/03/08 02:27:00;;;;;;;2.85;1.75;;;14.20;60.40;;;;;;10445226;28;20192;-60
2023/03/08 02:32:01;;;;;;;2.50;2.10;;;14.20;60.40;;;;;;10428801;28;20033;-60
2023/03/08 02:37:01;;;;;;;4.07;1.80;;;14.10;60.20;;;;;;10445704;28;20119;-59
2023/03/08 02:42:02;;;;;;;3.15;1.80;;;14.10;60.20;;;;;;10427845;28;20013;-60
2023/03/08 02:47:03;;;;;;;3.22;1.85;;;14.10;60.40;;;;;;10444164;28;20056;-60
2023/03/08 02:52:04;;;;;;;2.80;2.28;;;14.10;60.30;;;;;;10449408;28;20512;-59
2023/03/08 02:57:04;;;;;;;2.80;1.85;;;14.10;60.30;;;;;;10452402;28;20680;-60
2023/03/08 03:02:05;;;;;;;3.72;3.35;;;14.10;60.50;;;;;;10452702;28;20021;-60
2023/03/08 03:07:06;;;;;;;3.47;1.95;;;14.10;60.40;;;;;;10451854;28;20144;-60
2023/03/08 03:12:07;;;;;;;3.22;1.75;;;14.00;60.40;;;;;;10452019;28;20025;-60
2023/03/08 03:17:07;;;;;;;3.13;2.05;;;14.00;60.50;;;;;;10451786;28;20198;-58
2023/03/08 03:22:08;;;;;;;3.30;2.08;;;14.00;60.50;;;;;;10452819;28;20116;-60
2023/03/08 03:27:08;;;;;;;3.72;2.58;;;14.00;60.40;;;;;;10451040;28;20615;-59
2023/03/08 03:32:09;;;;;;;3.42;2.15;;;14.00;60.40;;;;;;10433910;28;20082;-59
2023/03/08 03:37:10;;;;;;;4.13;2.08;;;14.00;60.70;;;;;;10450943;28;20021;-60
2023/03/08 03:42:11;;;;;;;4.30;2.60;;;14.00;60.60;;;;;;10450165;28;20535;-60
2023/03/08 03:47:11;;;;;;;3.88;2.42;;;14.00;60.40;;;;;;10452085;28;20024;-60
2023/03/08 03:52:12;;;;;;;4.20;2.50;;;14.20;60.30;;;;;;10433752;28;20029;-60
2023/03/08 03:57:13;;;;;;;4.40;2.50;;;14.40;59.50;;;;;;10449837;28;20049;-59
2023/03/08 04:02:13;;;;;;;3.95;2.58;;;14.60;59.00;;;;;;10449175;28;20052;-60
2023/03/08 04:07:14;;;;;;;4.20;2.83;;;14.70;58.50;;;;;;10449126;28;20492;-59
2023/03/08 04:12:15;;;;;;;4.40;2.90;;;14.90;58.00;;;;;;10449260;28;20051;-60
2023/03/08 04:17:15;;;;;;;5.63;3.55;;;15.10;57.50;;;;;;10449186;28;20116;-59
2023/03/08 04:22:16;;;;;;;5.47;2.95;;;15.30;57.10;;;;;;10451419;28;20056;-59
2023/03/08 04:27:16;;;;;;;5.45;2.78;;;15.40;56.70;;;;;;10450647;28;20341;-60
2023/03/08 04:32:17;;;;;;;5.18;3.17;;;15.50;56.40;;;;;;10450064;28;20117;-59
2023/03/08 04:37:18;;;;;;;5.07;3.35;;;15.60;56.10;;;;;;10448178;28;20029;-60
2023/03/08 04:42:19;;;;;;;4.93;3.53;;;15.80;55.70;;;;;;10448649;28;20028;-60
2023/03/08 04:47:19;;;;;;;4.80;3.38;;;15.90;55.30;;;;;;10447261;28;20088;-59
2023/03/08 04:52:20;;;;;;;4.25;2.83;;;16.10;55.00;;;;;;10430239;28;20036;-59
2023/03/08 04:57:21;;;;;;;3.85;2.80;;;16.20;54.90;;;;;;10446518;28;20104;-60
2023/03/08 05:02:22;;;;;;;5.00;2.95;;;16.20;54.80;;;;;;10429525;28;20647;-59
2023/03/08 05:07:23;;;;;;;4.63;3.28;;;16.20;54.70;;;;;;10438561;28;20045;-59
2023/03/08 05:12:23;;;;;;;4.50;2.58;;;16.30;54.70;;;;;;10447858;28;20667;-59
2023/03/08 05:17:24;;;;;;;4.90;3.35;;;16.30;54.70;;;;;;10446984;28;20036;-59
2023/03/08 05:22:25;;;;;;;4.70;2.70;;;16.30;54.60;;;;;;10447365;28;20106;-60
2023/03/08 05:27:25;;;;;;;5.00;3.30;;;16.40;54.60;;;;;;10446824;28;20100;-60
2023/03/08 05:32:26;;;;;;;5.95;3.67;;;16.40;54.50;;;;;;10445833;28;20116;-59
2023/03/08 05:37:27;;;;;;;5.95;3.72;;;16.50;54.30;;;;;;10439974;28;20112;-60
2023/03/08 05:42:31;;;;;;;7.78;3.70;;;16.60;54.30;;;;;;10445082;28;20094;-59
2023/03/08 05:47:31;;;;;;;6.55;4.55;;;16.60;54.00;;;;;;10444475;28;21100;-60
2023/03/08 05:52:32;;;;;;;6.47;4.25;;;16.70;54.00;;;;;;10441895;28;20067;-60
2023/03/08 05:57:33;;;;;;;7.55;4.35;;;16.70;54.10;;;;;;10440604;28;20056;-59
2023/03/08 06:02:33;;;;;;;10.77;6.63;;;16.60;55.00;;;;;;10440551;28;20106;-57
2023/03/08 06:07:34;;;;;;;9.93;7.18;;;16.70;55.40;;;;;;10440140;28;20112;-59
2023/03/08 06:12:35;;;;;;;9.48;7.43;;;17.10;54.80;;;;;;10418065;28;20124;-58
2023/03/08 06:17:35;;;;;;;12.30;8.35;;;17.00;55.20;;;;;;10439520;28;20104;-58
2023/03/08 06:22:36;;;;;;;9.43;7.18;;;17.00;55.80;;;;;;10440266;28;20018;-56
2023/03/08 06:27:37;;;;;;;15.02;7.60;;;17.10;57.00;;;;;;10436286;28;20031;-59
2023/03/08 06:32:37;;;;;;;13.70;7.88;;;17.20;57.20;;;;;;10439554;28;20432;-56
2023/03/08 06:37:38;;;;;;;11.02;6.13;;;17.20;57.70;;;;;;10437701;28;20413;-58
2023/03/08 06:42:39;;;;;;;17.65;7.25;;;17.20;58.00;;;;;;10441953;28;20128;-57
2023/03/08 06:47:40;;;;;;;11.65;6.70;;;17.10;58.70;;;;;;10442507;28;20035;-58
2023/03/08 06:52:40;;;;;;;12.40;6.80;;;17.00;59.40;;;;;;10441798;28;20508;-59
2023/03/08 06:57:41;;;;;;;12.13;7.40;;;16.90;59.20;;;;;;10443430;28;20525;-57
2023/03/08 07:02:42;;;;;;;20.40;8.82;;;16.80;59.90;;;;;;10442772;28;20163;-55
2023/03/08 07:07:42;;;;;;;12.95;6.25;;;16.80;60.10;;;;;;10442963;28;20044;-57
2023/03/08 07:12:47;;;;;;;15.30;6.85;;;16.80;59.60;;;;;;10443012;28;20060;-57
2023/03/08 07:17:50;;;;;;;12.98;6.88;;;16.50;59.60;;;;;;10440668;28;20214;-57
2023/03/08 07:22:51;;;;;;;17.40;7.03;;;16.50;59.70;;;;;;10442427;28;20025;-58
2023/03/08 07:27:52;;;;;;;14.57;6.95;;;16.40;59.20;;;;;;10441835;28;20029;-58
2023/03/08 07:32:53;;;;;;;13.95;7.10;;;16.40;58.90;;;;;;10424365;28;20029;-58
2023/03/08 07:37:54;;;;;;;15.55;6.97;;;16.40;58.60;;;;;;10438735;28;20369;-58
2023/03/08 07:42:55;;;;;;;15.43;8.00;;;16.40;58.60;;;;;;10465672;28;20017;-58
2023/03/08 07:47:56;;;;;;;11.68;7.60;;;16.30;58.70;;;;;;10450294;28;20028;-57
2023/03/08 07:52:59;;;;;;;11.15;6.65;;;16.20;58.90;;;;;;10450030;28;20029;-56
2023/03/08 07:57:59;;;;;;;11.88;6.72;;;16.30;58.70;;;;;;10451239;28;20095;-57
2023/03/08 08:03:00;;;;;;;16.02;9.52;;;16.30;59.00;;;;;;10449649;28;20025;-58
2023/03/08 08:08:01;;;;;;;13.70;6.82;;;16.40;59.10;;;;;;10449307;28;20190;-57
2023/03/08 08:13:01;;;;;;;12.38;6.72;;;16.50;59.20;;;;;;10445952;28;20120;-57
2023/03/08 08:18:03;;;;;;;12.52;6.40;;;16.70;57.80;;;;;;10448503;28;20029;-57
2023/03/08 08:23:06;;;;;;;12.57;6.68;;;16.90;56.60;;;;;;10448209;28;20074;-57
2023/03/08 08:28:07;;;;;;;14.30;7.13;;;17.00;56.10;;;;;;10450872;28;20024;-57
2023/03/08 08:33:08;;;;;;;11.50;6.07;;;17.10;55.90;;;;;;10448111;28;20021;-57
2023/03/08 08:38:09;;;;;;;21.58;8.27;;;17.20;56.70;;;;;;10448924;28;20061;-57
2023/03/08 08:43:09;;;;;;;21.95;7.60;;;17.20;55.80;;;;;;10446328;28;20037;-57
2023/03/08 08:48:11;;;;;;;17.88;6.68;;;17.00;55.60;;;;;;10447457;28;20043;-55
2023/03/08 08:53:12;;;;;;;11.82;5.88;;;17.10;56.40;;;;;;10433894;28;20032;-54
2023/03/08 08:58:13;;;;;;;14.88;7.07;;;17.10;57.30;;;;;;10445752;28;20029;-60
2023/03/08 09:03:14;;;;;;;14.20;5.47;;;17.10;57.40;;;;;;10429057;28;20025;-56
2023/03/08 09:08:15;;;;;;;13.15;5.53;;;17.00;57.90;;;;;;10446457;28;20056;-57
2023/03/08 09:13:15;;;;;;;12.50;5.40;;;16.90;58.30;;;;;;10429877;28;20121;-58
2023/03/08 09:18:16;;;;;;;13.90;5.28;;;16.90;58.40;;;;;;10447192;28;20049;-56
2023/03/08 09:23:17;;;;;;;11.38;4.82;;;16.90;58.50;;;;;;10446312;28;20516;-53
2023/03/08 09:28:18;;;;;;;13.00;4.80;;;16.90;58.70;;;;;;10445895;28;20397;-56
2023/03/08 09:33:18;;;;;;;11.40;5.18;;;16.80;59.00;;;;;;10446892;28;20804;-57
2023/03/08 09:38:19;;;;;;;11.07;5.63;;;16.70;59.20;;;;;;10445769;28;20159;-57
2023/03/08 09:43:40;;;;;;;11.52;5.30;;;16.80;59.00;;;;;;10446032;28;20120;-56
2023/03/08 09:48:46;;;;;;;10.95;4.97;;;16.80;59.10;;;;;;10446013;28;20025;-57
2023/03/08 09:53:57;;;;;;;6.35;4.80;;;16.80;59.10;;;;;;10442022;28;20029;-56
2023/03/08 09:59:24;;;;;;;14.20;5.15;;;16.80;59.30;;;;;;10426751;28;20619;-56
2023/03/08 10:04:51;;;;;;;12.80;4.88;;;16.70;59.70;;;;;;10437408;28;20637;-56
2023/03/08 10:09:58;;;;;;;8.25;4.70;;;16.70;59.80;;;;;;10442407;28;20395;-56
2023/03/08 10:15:15;;;;;;;9.70;4.57;;;16.60;60.20;;;;;;10444227;28;20033;-57
2023/03/08 10:20:31;;;;;;;14.00;4.32;;;16.60;59.60;;;;;;10442645;28;20113;-57
2023/03/08 10:25:33;;;;;;;9.32;4.38;;;16.70;59.60;;;;;;10421261;28;20052;-57
2023/03/08 10:30:40;;;;;;;12.13;4.65;;;16.70;59.30;;;;;;10440928;28;20635;-57
2023/03/08 10:36:22;;;;;;;7.50;4.05;;;16.60;59.40;;;;;;10437699;28;20045;-56
2023/03/08 10:41:24;;;;;;;9.32;3.88;;;16.60;59.60;;;;;;10431840;28;20463;-57
2023/03/08 10:46:30;;;;;;;10.00;3.92;;;16.60;59.20;;;;;;10443158;28;20021;-57
2023/03/08 10:51:31;;;;;;;9.40;4.00;;;16.70;59.50;;;;;;10430656;28;20054;-57
2023/03/08 10:56:43;;;;;;;7.57;3.70;;;16.80;59.40;;;;;;10459296;28;20715;-57
2023/03/08 11:01:51;;;;;;;7.40;3.53;;;16.60;59.50;;;;;;10441518;28;20029;-56
2023/03/08 11:06:52;;;;;;;6.50;3.95;;;16.60;60.90;;;;;;10443708;28;20124;-57
2023/03/08 11:11:58;;;;;;;8.38;4.03;;;16.50;61.30;;;;;;10446503;28;20033;-56
2023/03/08 11:17:39;;;;;;;7.70;3.80;;;16.40;61.40;;;;;;10451778;28;20100;-56
2023/03/08 11:22:39;;;;;;;;;;;16.40;61.10;;;;;;10448470;28;20059;-56
2023/03/08 11:28:26;;;;;;;8.15;3.45;;;16.40;60.40;;;;;;10445310;28;19926;-56
2023/03/08 11:34:00;;;;;;;8.02;3.25;;;16.40;60.40;;;;;;10438474;28;20052;-55
2023/03/08 11:40:04;;;;;;;6.80;2.90;;;16.50;60.10;;;;;;10445251;28;20017;-55
2023/03/08 11:45:17;;;;;;;7.07;2.97;;;16.50;59.70;;;;;;10263679;28;20027;-56
2023/03/08 11:50:31;;;;;;;5.80;3.65;;;16.50;59.60;;;;;;10417363;28;20072;-56
2023/03/08 11:56:07;;;;;;;4.45;3.15;;;16.50;59.30;;;;;;10452625;28;20028;-55
2023/03/08 12:01:24;;;;;;;5.50;3.22;;;16.60;59.20;;;;;;10445907;28;20021;-55
2023/03/08 12:06:39;;;;;;;7.90;3.22;;;16.50;58.90;;;;;;10449638;28;20087;-56
2023/03/08 12:11:50;;;;;;;5.43;2.72;;;16.60;58.40;;;;;;10433251;28;20065;-55
2023/03/08 12:17:16;;;;;;;5.00;3.13;;;16.70;58.10;;;;;;10454591;28;20086;-56
2023/03/08 12:22:48;;;;;;;7.00;3.40;;;16.60;58.00;;;;;;10447997;28;20028;-55
2023/03/08 12:27:54;;;;;;;5.30;2.15;;;16.50;58.20;;;;;;10449942;28;20037;-54
2023/03/08 12:32:57;;;;;;;6.85;3.20;;;16.50;59.00;;;;;;10449501;28;20029;-56
2023/03/08 12:38:16;;;;;;;4.28;2.67;;;16.50;59.40;;;;;;10445734;28;20021;-56
2023/03/08 12:43:19;;;;;;;4.35;3.25;;;16.60;59.40;;;;;;10441548;28;20033;-56
2023/03/08 12:48:37;;;;;;;5.57;3.13;;;16.60;58.90;;;;;;10446845;28;20036;-57
2023/03/08 12:53:50;;;;;;;5.35;2.53;;;16.50;58.90;;;;;;10446358;28;20029;-56
2023/03/08 12:58:50;;;;;;;4.72;2.53;;;16.50;59.10;;;;;;10448049;28;20102;-56
2023/03/08 13:03:51;;;;;;;7.55;3.13;;;16.50;59.10;;;;;;10447084;28;20145;-56
2023/03/08 13:09:06;;;;;;;5.80;2.22;;;16.50;59.10;;;;;;10447597;28;20132;-56
2023/03/08 13:14:40;;;;;;;4.00;2.58;;;16.50;58.70;;;;;;10439520;28;20128;-57
2023/03/08 13:19:41;;;;;;;4.63;2.70;;;16.50;58.80;;;;;;10448282;28;20123;-55
2023/03/08 13:25:02;;;;;;;11.40;3.10;;;16.50;58.70;;;;;;10446601;28;20028;-56
2023/03/08 13:30:34;;;;;;;8.85;3.38;;;16.50;59.30;;;;;;10456076;28;20013;-56
2023/03/08 13:35:35;;;;;;;8.02;2.97;;;16.60;59.70;;;;;;10442943;28;20052;-55
2023/03/08 13:40:35;;;;;;;5.38;2.40;;;16.60;59.70;;;;;;10444885;28;20384;-55
2023/03/08 13:45:36;;;;;;;6.78;3.17;;;16.50;59.50;;;;;;10445964;28;20484;-56
2023/03/08 13:50:44;;;;;;;8.10;2.78;;;16.50;59.40;;;;;;10432337;28;20031;-55
2023/03/08 13:55:49;;;;;;;8.30;2.75;;;16.50;59.40;;;;;;10445236;28;20037;-56
2023/03/08 14:01:08;;;;;;;8.55;3.13;;;16.50;59.40;;;;;;10429453;28;20010;-56
2023/03/08 14:06:28;;;;;;;6.10;2.60;;;16.50;58.90;;;;;;10425272;28;20700;-55
2023/03/08 14:11:32;;;;;;;6.22;2.42;;;16.50;59.00;;;;;;10451963;28;20143;-55
2023/03/08 14:16:40;;;;;;;9.57;2.83;;;16.50;59.80;;;;;;10437443;28;20125;-55
2023/03/08 14:22:16;;;;;;;7.32;2.40;;;16.60;59.00;;;;;;10443166;28;20031;-56
2023/03/08 14:27:16;;;;;;;7.95;2.70;;;16.50;59.10;;;;;;10426045;28;20354;-58
2023/03/08 14:32:29;;;;;;;10.70;2.42;;;16.50;59.10;;;;;;10444871;28;20037;-55
2023/03/08 14:37:30;;;;;;;10.77;3.10;;;16.50;59.70;;;;;;10426893;28;20044;-56
2023/03/08 14:42:43;;;;;;;9.38;2.97;;;16.50;60.70;;;;;;10443510;28;20033;-56
2023/03/08 14:47:56;;;;;;;9.20;2.90;;;16.70;60.90;;;;;;10445461;28;20024;-56
2023/03/08 14:53:00;;;;;;;7.93;3.35;;;16.70;61.00;;;;;;10450270;28;20029;-56
2023/03/08 14:58:11;;;;;;;5.07;2.03;;;16.70;61.30;;;;;;10448363;28;20060;-55
2023/03/08 15:03:12;;;;;;;7.03;2.30;;;16.50;62.00;;;;;;10451268;28;20399;-56
2023/03/08 15:08:15;;;;;;;7.05;2.03;;;16.60;62.10;;;;;;10450420;28;20141;-56
2023/03/08 15:13:19;;;;;;;10.43;2.78;;;16.60;61.90;;;;;;10451237;28;20078;-56
2023/03/08 15:18:20;;;;;;;16.77;2.47;;;16.60;61.30;;;;;;10432799;28;20044;-55
2023/03/08 15:23:25;;;;;;;9.45;2.83;;;16.50;61.30;;;;;;10451502;28;20043;-55
2023/03/08 15:28:25;;;;;;;17.50;3.08;;;16.40;61.40;;;;;;10433517;28;20021;-56
2023/03/08 15:33:26;;;;;;;13.10;4.70;;;16.30;61.30;;;;;;10450487;28;20029;-56
2023/03/08 15:38:27;;;;;;;9.13;2.67;;;16.40;61.00;;;;;;10449929;28;20464;-56
2023/03/08 15:43:30;;;;;;;8.48;2.38;;;16.40;60.80;;;;;;10450028;28;20013;-56
2023/03/08 15:48:31;;;;;;;17.27;3.08;;;16.40;61.10;;;;;;10449928;28;20017;-56
2023/03/08 15:53:31;;;;;;;22.42;3.13;;;16.40;60.40;;;;;;10449209;28;20040;-57
2023/03/08 15:58:32;;;;;;;19.42;3.35;;;16.50;60.50;;;;;;10448408;28;20019;-55
2023/03/08 16:03:33;;;;;;;9.95;3.33;;;16.60;60.30;;;;;;10448375;28;20025;-58
2023/03/08 16:08:35;;;;;;;9.52;2.65;;;16.80;60.60;;;;;;10432162;28;20083;-55
2023/03/08 16:13:36;;;;;;;7.60;2.10;;;16.70;60.40;;;;;;10452545;28;20028;-55
2023/03/08 16:18:39;;;;;;;8.27;2.63;;;16.90;60.50;;;;;;10437778;28;20021;-56
2023/03/08 16:23:40;;;;;;;13.50;3.63;;;17.00;61.10;;;;;;10438310;28;20025;-57
2023/03/08 16:28:42;;;;;;;19.77;4.40;;;16.90;61.30;;;;;;10466695;28;20107;-57
2023/03/08 16:33:43;;;;;;;20.60;9.43;;;17.00;62.90;;;;;;10452263;28;20107;-56
2023/03/08 16:38:44;;;;;;;37.80;9.73;;;17.10;62.10;;;;;;10438179;28;20027;-56
2023/03/08 16:43:44;;;;;;;27.45;9.13;;;17.40;60.10;;;;;;10470338;28;20031;-56
2023/03/08 16:48:52;;;;;;;22.70;7.32;;;17.40;59.80;;;;;;10455137;28;20114;-61
2023/03/08 16:53:54;;;;;;;22.13;7.30;;;17.20;62.00;;;;;;10442607;28;20034;-56
2023/03/08 16:58:58;;;;;;;30.45;7.30;;;17.10;66.50;;;;;;10446210;28;20052;-56
2023/03/08 17:03:59;;;;;;;17.08;6.50;;;17.20;65.10;;;;;;10446816;28;20025;-56
2023/03/08 17:09:00;;;;;;;25.02;7.43;;;17.10;64.20;;;;;;10445359;28;20091;-57
2023/03/08 17:14:06;;;;;;;19.75;6.45;;;17.00;64.80;;;;;;10448383;28;20365;-56
2023/03/08 17:19:10;;;;;;;16.95;5.57;;;16.90;64.40;;;;;;10448266;28;20077;-57
2023/03/08 17:24:13;;;;;;;17.88;5.47;;;16.80;64.30;;;;;;10446449;28;20118;-56
2023/03/08 17:29:14;;;;;;;20.17;7.40;;;16.70;64.50;;;;;;10429891;28;20472;-56
2023/03/08 17:34:15;;;;;;;18.30;5.75;;;16.60;64.80;;;;;;10444044;28;20041;-55
2023/03/08 17:39:16;;;;;;;16.98;6.10;;;16.40;64.60;;;;;;10447402;28;20047;-57
2023/03/08 17:44:17;;;;;;;19.63;5.47;;;16.40;64.00;;;;;;10447525;28;20017;-53
2023/03/08 17:49:22;;;;;;;21.35;5.93;;;16.30;63.90;;;;;;10441211;28;20020;-60
2023/03/08 17:54:22;;;;;;;22.33;5.03;;;16.30;63.80;;;;;;10410925;28;20811;-57
2023/03/08 17:59:23;;;;;;;12.43;4.55;;;16.20;62.80;;;;;;10427874;28;20538;-56
2023/03/08 18:04:23;;;;;;;21.65;5.38;;;16.30;62.70;;;;;;10425176;28;20108;-56
2023/03/08 18:09:24;;;;;;;17.58;4.45;;;16.50;62.30;;;;;;10431141;28;20053;-57
2023/03/08 18:14:25;;;;;;;17.00;4.68;;;16.50;61.90;;;;;;10438522;28;20026;-56
2023/03/08 18:19:26;;;;;;;13.88;6.47;;;16.60;61.90;;;;;;10424493;28;20057;-57
2023/03/08 18:24:27;;;;;;;13.07;3.60;;;16.60;61.60;;;;;;10418240;28;20018;-57
2023/03/08 18:29:27;;;;;;;9.15;3.67;;;16.50;61.70;;;;;;10409240;28;20114;-57
2023/03/08 18:34:28;;;;;;;8.82;3.15;;;16.50;61.70;;;;;;10440510;28;20104;-54
2023/03/08 18:39:29;;;;;;;12.63;5.38;;;16.50;61.40;;;;;;10441333;28;20040;-54
2023/03/08 18:44:30;;;;;;;9.75;3.75;;;16.50;61.40;;;;;;10440705;28;20029;-56
2023/03/08 18:49:30;;;;;;;9.70;3.95;;;16.50;61.20;;;;;;10434961;28;20521;-55
2023/03/08 18:54:32;;;;;;;15.68;3.58;;;16.50;61.10;;;;;;10430073;28;20120;-56
2023/03/08 18:59:33;;;;;;;11.40;3.58;;;16.50;60.90;;;;;;10441554;28;20439;-56
2023/03/08 19:04:38;;;;;;;7.03;3.05;;;16.60;60.40;;;;;;10439040;28;20056;-56
2023/03/08 19:09:42;;;;;;;8.98;3.53;;;16.60;60.80;;;;;;10437641;28;20132;-55
2023/03/08 19:14:45;;;;;;;6.60;2.90;;;16.70;61.00;;;;;;10408629;28;20041;-53
2023/03/08 19:19:46;;;;;;;7.72;2.63;;;16.60;61.30;;;;;;10435321;28;20033;-54
2023/03/08 19:24:46;;;;;;;5.60;2.88;;;16.60;61.20;;;;;;10440977;28;20511;-54
2023/03/08 19:29:47;;;;;;;6.90;3.15;;;16.50;61.70;;;;;;10437021;28;20091;-55
2023/03/08 19:34:48;;;;;;;7.30;3.08;;;16.60;61.80;;;;;;10445439;28;20459;-55
2023/03/08 19:39:48;;;;;;;5.22;2.67;;;16.50;61.80;;;;;;10444558;28;20104;-56
2023/03/08 19:44:51;;;;;;;7.78;2.67;;;16.50;61.90;;;;;;10444374;28;20496;-55
2023/03/08 19:49:52;;;;;;;6.20;2.50;;;16.60;61.90;;;;;;10442467;28;20036;-53
2023/03/08 19:54:52;;;;;;;4.30;2.40;;;16.60;61.90;;;;;;10445696;28;20424;-56
2023/03/08 19:59:54;;;;;;;7.72;3.42;;;16.60;61.60;;;;;;10445157;28;20104;-55
2023/03/08 20:04:55;;;;;;;7.65;3.33;;;16.60;61.10;;;;;;10449177;28;20021;-56
2023/03/08 20:09:55;;;;;;;7.13;3.08;;;16.60;60.80;;;;;;10445169;28;20369;-57
2023/03/08 20:14:56;;;;;;;5.90;2.30;;;16.50;60.60;;;;;;10448503;28;20476;-56
2023/03/08 20:19:57;;;;;;;6.35;2.53;;;16.50;60.60;;;;;;10446559;28;20642;-56
2023/03/08 20:24:58;;;;;;;3.92;1.90;;;16.50;60.30;;;;;;10447021;28;20024;-56
2023/03/08 20:29:58;;;;;;;3.50;1.98;;;16.60;60.10;;;;;;10446711;28;20033;-56
2023/03/08 20:34:59;;;;;;;11.80;3.15;;;16.60;59.90;;;;;;10446639;28;20064;-57
2023/03/08 20:40:03;;;;;;;4.93;2.22;;;16.50;60.00;;;;;;10448302;28;20490;-56
2023/03/08 20:45:05;;;;;;;5.60;2.15;;;16.40;60.20;;;;;;10447862;28;20025;-56
2023/03/08 20:50:06;;;;;;;5.78;2.58;;;16.30;60.50;;;;;;10434637;28;20079;-56
2023/03/08 20:55:08;;;;;;;3.35;2.13;;;16.20;60.80;;;;;;10449015;28;20063;-56
2023/03/08 21:00:11;;;;;;;4.07;2.17;;;16.10;60.90;;;;;;10449074;28;20020;-56
2023/03/08 21:05:13;;;;;;;2.90;2.00;;;15.90;61.10;;;;;;10447471;28;20029;-55
2023/03/08 21:10:14;;;;;;;4.50;1.92;;;15.80;61.20;;;;;;10459127;28;20057;-56
2023/03/08 21:15:14;;;;;;;2.75;2.00;;;15.80;61.30;;;;;;10447154;28;20518;-56
2023/03/08 21:20:15;;;;;;;4.13;2.05;;;15.70;61.30;;;;;;10430032;28;20377;-56
2023/03/08 21:25:17;;;;;;;4.57;1.98;;;15.60;61.40;;;;;;10447807;28;20025;-57
2023/03/08 21:30:18;;;;;;;5.78;2.45;;;15.60;61.40;;;;;;10446746;28;20051;-56
2023/03/08 21:35:18;;;;;;;3.47;2.50;;;15.50;61.40;;;;;;10447698;28;20716;-55
2023/03/08 21:40:19;;;;;;;3.10;1.92;;;15.40;61.40;;;;;;10447811;28;20056;-56
2023/03/08 21:45:20;;;;;;;3.95;2.20;;;15.40;61.40;;;;;;10439806;28;20568;-56
2023/03/08 21:50:20;;;;;;;3.40;2.10;;;15.30;61.40;;;;;;10433439;28;20096;-55
2023/03/08 21:55:21;;;;;;;2.85;1.92;;;15.30;61.40;;;;;;10446244;28;20116;-55
2023/03/08 22:00:22;;;;;;;3.55;1.83;;;15.20;61.50;;;;;;10445547;28;20052;-56
2023/03/08 22:05:23;;;;;;;2.42;1.73;;;15.20;61.70;;;;;;10446119;28;20025;-56
2023/03/08 22:10:23;;;;;;;2.90;1.73;;;15.20;61.60;;;;;;10446538;28;20052;-56
2023/03/08 22:15:24;;;;;;;2.95;2.00;;;15.10;61.60;;;;;;10446147;28;20039;-56
2023/03/08 22:20:26;;;;;;;4.35;2.60;;;15.10;61.80;;;;;;10446196;28;20116;-57
2023/03/08 22:25:27;;;;;;;3.55;2.10;;;15.00;61.80;;;;;;10445760;28;20090;-56
2023/03/08 22:30:27;;;;;;;3.17;1.90;;;15.00;61.70;;;;;;10428142;28;20602;-56
2023/03/08 22:35:28;;;;;;;3.45;2.15;;;15.00;61.90;;;;;;10444464;28;20035;-56
2023/03/08 22:40:29;;;;;;;2.63;1.77;;;14.90;61.60;;;;;;10446171;28;20052;-56
2023/03/08 22:45:29;;;;;;;1.92;1.52;;;14.90;61.80;;;;;;10445725;28;20026;-55
2023/03/08 22:50:31;;;;;;;2.45;1.67;;;14.90;61.80;;;;;;10432557;28;20118;-55
2023/03/08 22:55:32;;;;;;;2.67;1.83;;;14.90;61.60;;;;;;10444338;28;20029;-56
2023/03/08 23:00:32;;;;;;;2.75;2.13;;;14.80;61.70;;;;;;10445696;28;20017;-56
2023/03/08 23:05:33;;;;;;;3.03;1.88;;;14.80;61.80;;;;;;10444461;28;20495;-56
2023/03/08 23:10:35;;;;;;;2.80;2.13;;;14.80;61.60;;;;;;10434629;28;20472;-56
2023/03/08 23:15:35;;;;;;;2.15;1.55;;;14.80;61.60;;;;;;10452606;28;20082;-56
2023/03/08 23:20:38;;;;;;;2.33;1.90;;;14.70;61.80;;;;;;10452126;28;20037;-56
2023/03/08 23:25:39;;;;;;;2.30;1.55;;;14.70;61.70;;;;;;10452369;28;20603;-56
2023/03/08 23:30:41;;;;;;;2.38;1.95;;;14.70;61.80;;;;;;10451480;28;20025;-55
2023/03/08 23:35:41;;;;;;;4.72;1.95;;;14.70;61.80;;;;;;10450539;28;20436;-56
2023/03/08 23:40:42;;;;;;;3.67;1.90;;;14.70;61.70;;;;;;10446515;28;20040;-56
2023/03/08 23:45:43;;;;;;;3.33;2.00;;;14.60;61.50;;;;;;10450691;28;20017;-56
2023/03/08 23:50:43;;;;;;;3.15;2.17;;;14.60;61.40;;;;;;10439042;28;20116;-56
2023/03/08 23:55:44;;;;;;;3.53;2.03;;;14.60;61.60;;;;;;10449606;28;20120;-56
